createdAt,value
2022-10-02T00:02:11.573Z,98296.88
2022-10-02T00:05:19.264Z,98297.75
2022-10-02T00:08:24.345Z,98283.00
2022-10-02T00:11:37.224Z,98282.00
2022-10-02T00:14:39.054Z,98294.88
2022-10-02T00:17:41.153Z,98289.41
2022-10-02T00:21:02.928Z,98304.81
2022-10-02T00:24:05.697Z,98312.88
2022-10-02T00:27:15.392Z,98317.25
2022-10-02T00:30:17.832Z,98318.19
2022-10-02T00:33:28.550Z,98337.22
2022-10-02T00:36:51.713Z,98347.63
2022-10-02T00:40:02.466Z,98378.56
2022-10-02T00:43:18.342Z,98354.97
2022-10-02T00:46:32.101Z,98353.91
2022-10-02T00:49:33.585Z,98354.69
2022-10-02T00:52:45.573Z,98370.38
2022-10-02T00:56:09.345Z,98361.44
2022-10-02T00:59:10.890Z,98387.91
2022-10-02T01:02:35.244Z,98388.66
2022-10-02T01:05:36.771Z,98389.53
2022-10-02T01:08:38.576Z,98398.78
2022-10-02T01:11:40.144Z,98417.19
2022-10-02T01:14:41.769Z,98420.44
2022-10-02T01:17:43.269Z,98423.44
2022-10-02T01:20:45.813Z,98432.84
2022-10-02T01:23:50.564Z,98426.88
2022-10-02T01:26:52.121Z,98417.81
2022-10-02T01:29:57.433Z,98406.06
2022-10-02T01:33:00.264Z,98408.53
2022-10-02T01:36:01.777Z,98402.00
2022-10-02T01:39:03.494Z,98401.78
2022-10-02T01:42:04.994Z,98413.13
2022-10-02T01:45:07.132Z,98397.06
2022-10-02T01:48:13.325Z,98398.38
2022-10-02T01:51:14.836Z,98406.66
2022-10-02T01:54:19.130Z,98410.34
2022-10-02T01:57:30.769Z,98428.97
2022-10-02T02:00:40.591Z,98433.47
2022-10-02T02:03:45.148Z,98442.81
2022-10-02T02:06:49.494Z,98439.63
2022-10-02T02:10:14.097Z,98451.59
2022-10-02T02:13:27.942Z,98458.38
2022-10-02T02:16:34.247Z,98456.72
2022-10-02T02:19:56.389Z,98462.25
2022-10-02T02:22:58.630Z,98443.88
2022-10-02T02:26:02.341Z,98447.69
2022-10-02T02:29:06.031Z,98452.41
2022-10-02T02:32:08.294Z,98455.69
2022-10-02T02:35:10.693Z,98449.03
2022-10-02T02:38:18.080Z,98450.25
2022-10-02T02:41:21.558Z,98437.91
2022-10-02T02:44:24.670Z,98434.09
2022-10-02T02:47:28.144Z,98432.06
2022-10-02T02:50:34.037Z,98466.38
2022-10-02T02:53:37.201Z,98448.00
2022-10-02T02:56:38.903Z,98463.03
2022-10-02T02:59:40.655Z,98474.72
2022-10-02T03:02:42.199Z,98476.59
2022-10-02T03:05:45.978Z,98489.84
2022-10-02T03:08:48.359Z,98490.16
2022-10-02T03:11:53.349Z,98503.78
2022-10-02T03:14:54.873Z,98514.97
2022-10-02T03:18:09.967Z,98519.44
2022-10-02T03:21:33.351Z,98519.69
2022-10-02T03:24:36.334Z,98520.53
2022-10-02T03:27:57.257Z,98518.13
2022-10-02T03:30:58.856Z,98521.34
2022-10-02T03:34:00.783Z,98533.28
2022-10-02T03:37:02.299Z,98523.44
2022-10-02T03:40:05.801Z,98520.78
2022-10-02T03:43:07.341Z,98525.91
2022-10-02T03:46:09.013Z,98527.28
2022-10-02T03:49:10.534Z,98530.19
2022-10-02T03:52:15.918Z,98534.22
2022-10-02T03:55:28.404Z,98539.53
2022-10-02T03:58:29.942Z,98541.41
2022-10-02T04:01:36.030Z,98548.53
2022-10-02T04:04:40.826Z,98556.22
2022-10-02T04:07:42.579Z,98562.28
2022-10-02T04:10:46.340Z,98571.56
2022-10-02T04:13:48.945Z,98581.38
2022-10-02T04:16:57.418Z,98581.88
2022-10-02T04:20:14.394Z,98584.75
2022-10-02T04:23:18.125Z,98573.56
2022-10-02T04:26:27.682Z,98589.50
2022-10-02T04:29:32.320Z,98599.06
2022-10-02T04:32:34.490Z,98595.75
2022-10-02T04:35:45.909Z,98603.00
2022-10-02T04:38:47.454Z,98606.63
2022-10-02T04:42:09.286Z,98614.31
2022-10-02T04:45:10.777Z,98622.31
2022-10-02T04:48:35.591Z,98635.06
2022-10-02T04:51:40.003Z,98644.31
2022-10-02T04:54:56.586Z,98647.97
2022-10-02T04:58:16.671Z,98647.75
2022-10-02T05:01:27.158Z,98655.25
2022-10-02T05:04:40.579Z,98645.09
2022-10-02T05:07:42.142Z,98664.09
2022-10-02T05:10:43.897Z,98661.72
2022-10-02T05:13:45.418Z,98674.72
2022-10-02T05:17:03.938Z,98683.00
2022-10-02T05:20:05.463Z,98686.44
2022-10-02T05:23:11.847Z,98696.84
2022-10-02T05:26:32.298Z,98697.63
2022-10-02T05:29:48.829Z,98696.59
2022-10-02T05:33:05.500Z,98709.66
2022-10-02T05:36:13.038Z,98715.06
2022-10-02T05:39:21.609Z,98718.81
2022-10-02T05:42:26.282Z,98724.16
2022-10-02T05:45:46.322Z,98727.84
2022-10-02T05:48:50.061Z,98724.44
2022-10-02T05:51:59.644Z,98733.50
2022-10-02T05:55:19.487Z,98732.69
2022-10-02T05:58:21.011Z,98753.72
2022-10-02T06:01:23.832Z,98756.59
2022-10-02T06:04:36.203Z,98758.50
2022-10-02T06:07:37.718Z,98773.06
2022-10-02T06:10:43.625Z,98772.50
2022-10-02T06:14:14.449Z,98770.34
2022-10-02T06:17:39.005Z,98791.63
2022-10-02T06:20:41.073Z,98782.06
2022-10-02T06:23:44.143Z,98786.03
2022-10-02T06:27:08.974Z,98795.56
2022-10-02T06:30:11.462Z,98792.16
2022-10-02T06:33:33.597Z,98790.03
2022-10-02T06:36:44.313Z,98806.78
2022-10-02T06:40:18.131Z,98818.22
2022-10-02T06:43:40.466Z,98829.88
2022-10-02T06:46:51.532Z,98845.81
2022-10-02T06:50:00.156Z,98848.47
2022-10-02T06:53:10.829Z,98845.25
2022-10-02T06:56:12.305Z,98855.88
2022-10-02T06:59:30.150Z,98860.13
2022-10-02T07:02:32.550Z,98855.34
2022-10-02T07:05:43.377Z,98861.69
2022-10-02T07:08:48.161Z,98862.72
2022-10-02T07:12:08.382Z,98871.19
2022-10-02T07:15:18.973Z,98869.50
2022-10-02T07:18:46.766Z,98885.72
2022-10-02T07:21:55.083Z,98879.28
2022-10-02T07:25:16.111Z,98881.16
2022-10-02T07:28:17.659Z,98876.34
2022-10-02T07:31:38.995Z,98884.25
2022-10-02T07:34:53.838Z,98879.91
2022-10-02T07:38:13.927Z,98897.59
2022-10-02T07:41:30.473Z,98899.31
2022-10-02T07:44:44.561Z,98903.50
2022-10-02T07:47:46.085Z,98908.22
2022-10-02T07:50:53.600Z,98909.75
2022-10-02T07:53:57.071Z,98921.22
2022-10-02T07:56:59.537Z,98929.50
2022-10-02T08:00:03.050Z,98916.72
2022-10-02T08:03:23.866Z,98913.63
2022-10-02T08:06:25.497Z,98923.47
2022-10-02T08:09:47.527Z,98934.66
2022-10-02T08:12:54.157Z,98937.25
2022-10-02T08:15:56.117Z,98940.06
2022-10-02T08:19:09.152Z,98949.84
2022-10-02T08:22:16.703Z,98953.53
2022-10-02T08:25:21.230Z,98956.19
2022-10-02T08:28:22.831Z,98967.56
2022-10-02T08:31:24.441Z,98967.44
2022-10-02T08:34:26.211Z,98974.59
2022-10-02T08:37:33.876Z,98967.84
2022-10-02T08:40:44.350Z,98974.13
2022-10-02T08:44:01.086Z,98974.19
2022-10-02T08:47:21.443Z,98974.19
2022-10-02T08:50:29.347Z,98977.69
2022-10-02T08:53:34.534Z,98999.72
2022-10-02T08:56:42.025Z,98998.06
2022-10-02T08:59:43.531Z,98996.66
2022-10-02T09:02:45.049Z,99012.72
2022-10-02T09:06:05.188Z,99028.19
2022-10-02T09:09:25.542Z,99031.16
2022-10-02T09:12:33.233Z,99047.13
2022-10-02T09:15:47.717Z,99034.91
2022-10-02T09:19:03.686Z,99041.91
2022-10-02T09:22:30.231Z,99047.59
2022-10-02T09:25:37.021Z,99046.81
2022-10-02T09:28:44.398Z,99073.00
2022-10-02T09:31:55.197Z,99067.63
2022-10-02T09:34:58.370Z,99059.25
2022-10-02T09:38:11.144Z,99067.63
2022-10-02T09:41:31.561Z,99073.56
2022-10-02T09:44:48.668Z,99065.03
2022-10-02T09:48:11.897Z,99066.88
2022-10-02T09:51:40.248Z,99072.06
2022-10-02T09:54:44.873Z,99082.38
2022-10-02T09:57:47.249Z,99092.56
2022-10-02T10:01:01.910Z,99080.78
2022-10-02T10:04:22.370Z,99094.38
2022-10-02T10:07:42.413Z,99092.41
2022-10-02T10:10:44.037Z,99099.19
2022-10-02T10:14:04.168Z,99100.50
2022-10-02T10:17:20.882Z,99106.81
2022-10-02T10:20:22.783Z,99108.44
2022-10-02T10:23:27.142Z,99105.81
2022-10-02T10:26:34.106Z,99118.44
2022-10-02T10:29:39.906Z,99096.88
2022-10-02T10:32:44.590Z,99111.41
2022-10-02T10:35:46.133Z,99099.41
2022-10-02T10:38:49.614Z,99112.50
2022-10-02T10:42:01.207Z,99107.03
2022-10-02T10:45:08.953Z,99100.03
2022-10-02T10:48:22.711Z,99117.88
2022-10-02T10:51:30.591Z,99119.00
2022-10-02T10:54:48.682Z,99133.28
2022-10-02T10:57:53.289Z,99147.09
2022-10-02T11:01:07.246Z,99155.03
2022-10-02T11:04:26.879Z,99164.31
2022-10-02T11:07:35.113Z,99155.69
2022-10-02T11:10:42.445Z,99157.22
2022-10-02T11:13:54.507Z,99169.44
2022-10-02T11:17:09.463Z,99165.84
2022-10-02T11:20:30.280Z,99165.81
2022-10-02T11:23:35.019Z,99170.28
2022-10-02T11:26:36.549Z,99198.41
2022-10-02T11:29:56.774Z,99178.94
2022-10-02T11:33:33.770Z,99170.00
2022-10-02T11:36:44.336Z,99189.31
2022-10-02T11:39:52.682Z,99189.75
2022-10-02T11:43:11.312Z,99185.91
2022-10-02T11:46:34.731Z,99187.03
2022-10-02T11:49:39.338Z,99197.59
2022-10-02T11:52:59.608Z,99191.34
2022-10-02T11:56:06.341Z,99207.63
2022-10-02T11:59:28.348Z,99224.72
2022-10-02T12:02:38.998Z,99225.44
2022-10-02T12:05:59.629Z,99216.06
2022-10-02T12:09:03.120Z,99241.28
2022-10-02T12:12:17.103Z,99249.47
2022-10-02T12:15:27.911Z,99252.09
2022-10-02T12:18:36.323Z,99245.97
2022-10-02T12:22:05.603Z,99261.47
2022-10-02T12:25:44.707Z,99271.38
2022-10-02T12:28:46.238Z,99261.53
2022-10-02T12:31:53.713Z,99278.50
2022-10-02T12:35:15.934Z,99276.63
2022-10-02T12:38:38.932Z,99301.91
2022-10-02T12:41:52.662Z,99297.25
2022-10-02T12:44:58.835Z,99302.25
2022-10-02T12:48:15.552Z,99296.03
2022-10-02T12:51:28.202Z,99309.06
2022-10-02T12:54:33.377Z,99301.69
2022-10-02T12:57:56.023Z,99305.91
2022-10-02T13:01:00.810Z,99304.28
2022-10-02T13:04:21.086Z,99294.78
2022-10-02T13:07:31.026Z,99310.03
2022-10-02T13:10:41.339Z,99310.97
2022-10-02T13:13:48.894Z,99322.41
2022-10-02T13:16:50.445Z,99321.28
2022-10-02T13:20:00.553Z,99324.78
2022-10-02T13:23:06.314Z,99310.09
2022-10-02T13:26:12.827Z,99312.00
2022-10-02T13:29:14.382Z,99337.03
2022-10-02T13:32:34.343Z,99324.66
2022-10-02T13:35:45.847Z,99326.16
2022-10-02T13:38:47.462Z,99334.41
2022-10-02T13:41:54.873Z,99327.66
2022-10-02T13:45:16.643Z,99338.72
2022-10-02T13:48:30.358Z,99352.25
2022-10-02T13:51:37.235Z,99364.94
2022-10-02T13:54:42.049Z,99341.00
2022-10-02T13:57:43.616Z,99340.66
2022-10-02T14:00:49.555Z,99363.56
2022-10-02T14:03:57.350Z,99360.25
2022-10-02T14:07:07.862Z,99357.88
2022-10-02T14:10:15.364Z,99354.19
2022-10-02T14:13:16.854Z,99376.22
2022-10-02T14:16:21.544Z,99383.25
2022-10-02T14:19:38.059Z,99383.03
2022-10-02T14:22:58.158Z,99393.53
2022-10-02T14:25:59.669Z,99380.50
2022-10-02T14:29:13.470Z,99384.94
2022-10-02T14:32:18.608Z,99379.94
2022-10-02T14:35:20.261Z,99395.06
2022-10-02T14:38:25.159Z,99395.38
2022-10-02T14:41:49.172Z,99395.38
2022-10-02T14:44:50.917Z,99401.81
2022-10-02T14:47:52.479Z,99397.94
2022-10-02T14:50:53.996Z,99407.13
2022-10-02T14:54:01.457Z,99418.38
2022-10-02T14:57:06.532Z,99430.28
2022-10-02T15:00:11.194Z,99434.19
2022-10-02T15:03:17.894Z,99437.50
2022-10-02T15:06:22.418Z,99437.44
2022-10-02T15:09:24.200Z,99442.22
2022-10-02T15:12:26.329Z,99439.19
2022-10-02T15:15:37.364Z,99450.56
2022-10-02T15:18:41.930Z,99446.69
2022-10-02T15:21:47.006Z,99464.13
2022-10-02T15:24:55.720Z,99454.84
2022-10-02T15:28:31.309Z,99456.63
2022-10-02T15:31:41.775Z,99467.03
2022-10-02T15:34:54.957Z,99468.84
2022-10-02T15:38:20.242Z,99468.06
2022-10-02T15:41:44.881Z,99470.81
2022-10-02T15:44:49.290Z,99481.75
2022-10-02T15:48:00.988Z,99475.59
2022-10-02T15:51:02.510Z,99479.59
2022-10-02T15:54:04.057Z,99471.56
2022-10-02T15:57:22.170Z,99480.97
2022-10-02T16:00:26.065Z,99488.75
2022-10-02T16:03:31.887Z,99486.31
2022-10-02T16:06:53.613Z,99488.19
2022-10-02T16:09:55.169Z,99492.75
2022-10-02T16:12:56.674Z,99500.53
2022-10-02T16:15:58.237Z,99506.19
2022-10-02T16:19:00.892Z,99495.91
2022-10-02T16:22:05.206Z,99521.91
2022-10-02T16:25:15.742Z,99512.03
2022-10-02T16:28:17.342Z,99496.00
2022-10-02T16:31:57.498Z,99511.00
2022-10-02T16:35:24.279Z,99505.16
2022-10-02T16:38:44.296Z,99505.69
2022-10-02T16:42:03.814Z,99512.69
2022-10-02T16:45:14.396Z,99522.03
2022-10-02T16:48:19.887Z,99514.81
2022-10-02T16:51:39.818Z,99513.53
2022-10-02T16:54:47.437Z,99514.38
2022-10-02T16:57:51.673Z,99513.91
2022-10-02T17:00:55.802Z,99529.97
2022-10-02T17:04:06.965Z,99533.22
2022-10-02T17:07:17.785Z,99527.13
2022-10-02T17:10:25.769Z,99533.03
2022-10-02T17:13:43.011Z,99537.56
2022-10-02T17:16:52.214Z,99557.34
2022-10-02T17:19:54.993Z,99560.31
2022-10-02T17:23:03.284Z,99563.78
2022-10-02T17:26:06.265Z,99563.78
2022-10-02T17:29:18.882Z,99564.84
2022-10-02T17:32:38.089Z,99576.31
2022-10-02T17:35:54.718Z,99577.66
2022-10-02T17:38:56.461Z,99568.06
2022-10-02T17:42:20.124Z,99574.50
2022-10-02T17:45:38.372Z,99581.16
2022-10-02T17:48:58.817Z,99577.63
2022-10-02T17:52:42.325Z,99591.19
2022-10-02T17:56:14.346Z,99593.50
2022-10-02T17:59:34.724Z,99600.97
2022-10-02T18:02:50.947Z,99598.25
2022-10-02T18:05:55.556Z,99590.53
2022-10-02T18:09:15.889Z,99595.59
2022-10-02T18:12:35.570Z,99594.00
2022-10-02T18:15:58.260Z,99616.88
2022-10-02T18:19:14.933Z,99631.22
2022-10-02T18:22:16.477Z,99641.34
2022-10-02T18:25:23.906Z,99642.72
2022-10-02T18:28:25.499Z,99650.75
2022-10-02T18:31:54.703Z,99659.31
2022-10-02T18:34:57.786Z,99667.53
2022-10-02T18:38:05.379Z,99662.50
2022-10-02T18:41:19.262Z,99658.22
2022-10-02T18:44:29.829Z,99666.44
2022-10-02T18:47:35.481Z,99664.53
2022-10-02T18:50:46.397Z,99665.31
2022-10-02T18:54:06.636Z,99661.66
2022-10-02T18:57:08.147Z,99657.41
2022-10-02T19:00:15.523Z,99656.94
2022-10-02T19:03:35.789Z,99654.03
2022-10-02T19:06:55.042Z,99662.28
2022-10-02T19:10:29.671Z,99660.34
2022-10-02T19:13:31.251Z,99661.66
2022-10-02T19:16:32.841Z,99672.81
2022-10-02T19:19:36.661Z,99675.19
2022-10-02T19:22:38.517Z,99673.53
2022-10-02T19:25:43.875Z,99680.22
2022-10-02T19:28:49.608Z,99685.44
2022-10-02T19:31:51.273Z,99700.56
2022-10-02T19:35:06.615Z,99701.03
2022-10-02T19:38:14.247Z,99698.69
2022-10-02T19:41:15.796Z,99691.69
2022-10-02T19:44:19.448Z,99697.53
2022-10-02T19:47:30.030Z,99702.91
2022-10-02T19:50:40.963Z,99704.56
2022-10-02T19:53:48.391Z,99708.88
2022-10-02T19:56:51.228Z,99695.47
2022-10-02T19:59:53.472Z,99696.22
2022-10-02T20:02:56.189Z,99703.53
2022-10-02T20:06:00.200Z,99707.34
2022-10-02T20:09:04.161Z,99717.84
2022-10-02T20:12:05.870Z,99719.72
2022-10-02T20:15:14.878Z,99719.19
2022-10-02T20:18:16.454Z,99719.19
2022-10-02T20:21:19.509Z,99732.53
2022-10-02T20:24:31.755Z,99733.88
2022-10-02T20:27:36.478Z,99727.22
2022-10-02T20:30:41.419Z,99739.94
2022-10-02T20:33:55.701Z,99741.50
2022-10-02T20:36:58.803Z,99752.19
2022-10-02T20:40:06.962Z,99742.63
2022-10-02T20:43:15.171Z,99737.56
2022-10-02T20:46:22.659Z,99755.41
2022-10-02T20:49:40.328Z,99762.06
2022-10-02T20:52:41.907Z,99768.78
2022-10-02T20:55:49.676Z,99759.50
2022-10-02T20:58:51.444Z,99779.19
2022-10-02T21:01:53.023Z,99778.34
2022-10-02T21:04:54.644Z,99764.28
2022-10-02T21:08:06.788Z,99767.03
2022-10-02T21:11:14.280Z,99757.06
2022-10-02T21:14:34.553Z,99756.81
2022-10-02T21:17:55.433Z,99765.94
2022-10-02T21:21:03.256Z,99768.63
2022-10-02T21:24:14.246Z,99753.47
2022-10-02T21:27:20.506Z,99756.41
2022-10-02T21:30:22.167Z,99774.16
2022-10-02T21:33:42.287Z,99776.25
2022-10-02T21:36:48.839Z,99770.06
2022-10-02T21:39:53.496Z,99765.81
2022-10-02T21:43:13.933Z,99767.38
2022-10-02T21:46:41.707Z,99770.03
2022-10-02T21:49:58.442Z,99785.28
2022-10-02T21:53:07.533Z,99778.09
2022-10-02T21:56:09.070Z,99772.50
2022-10-02T21:59:13.446Z,99773.59
2022-10-02T22:02:33.620Z,99776.50
2022-10-02T22:05:47.142Z,99771.78
2022-10-02T22:08:55.068Z,99778.44
2022-10-02T22:12:08.746Z,99765.91
2022-10-02T22:15:11.722Z,99781.44
2022-10-02T22:18:22.381Z,99788.00
2022-10-02T22:21:29.773Z,99764.56
2022-10-02T22:24:50.063Z,99771.50
2022-10-02T22:28:00.570Z,99784.81
2022-10-02T22:31:05.035Z,99772.84
2022-10-02T22:34:28.933Z,99774.72
2022-10-02T22:37:37.578Z,99780.03
2022-10-02T22:40:58.117Z,99774.47
2022-10-02T22:44:22.987Z,99784.16
2022-10-02T22:47:27.376Z,99780.41
2022-10-02T22:50:31.757Z,99789.69
2022-10-02T22:53:38.721Z,99790.16
2022-10-02T22:56:51.257Z,99786.50
2022-10-02T22:59:55.346Z,99781.16
2022-10-02T23:03:06.200Z,99786.16
2022-10-02T23:06:10.598Z,99797.47
2022-10-02T23:09:22.642Z,99795.31
2022-10-02T23:12:36.823Z,99790.03
2022-10-02T23:15:39.859Z,99800.16
2022-10-02T23:18:41.510Z,99794.81
2022-10-02T23:21:48.145Z,99791.06
2022-10-02T23:24:52.951Z,99779.31
2022-10-02T23:28:02.375Z,99782.91
2022-10-02T23:31:08.578Z,99783.50
2022-10-02T23:34:33.525Z,99763.97
2022-10-02T23:37:50.138Z,99768.97
2022-10-02T23:41:19.251Z,99775.53
2022-10-02T23:44:27.149Z,99781.09
2022-10-02T23:47:47.409Z,99787.50
2022-10-02T23:51:04.643Z,99771.00
2022-10-02T23:54:11.938Z,99777.38
2022-10-02T23:57:29.824Z,99780.81
